sensor_id;sensor_type;location;lat;lon;timestamp;P1;durP1;ratioP1;P2;durP2;ratioP2
79019;SDS011;72857;44.740;37.770;2024-03-25T00:00:00;48.05;;;15.52;;
79019;SDS011;72857;44.740;37.770;2024-03-25T00:01:01;44.35;;;13.98;;
79019;SDS011;72857;44.740;37.770;2024-03-25T00:02:03;42.67;;;16.58;;
79019;SDS011;72857;44.740;37.770;2024-03-25T00:03:05;34.80;;;14.68;;
79019;SDS011;72857;44.740;37.770;2024-03-25T00:04:07;39.03;;;15.95;;
79019;SDS011;72857;44.740;37.770;2024-03-25T00:05:08;49.60;;;15.18;;
79019;SDS011;72857;44.740;37.770;2024-03-25T00:06:10;37.08;;;13.77;;
79019;SDS011;72857;44.740;37.770;2024-03-25T00:07:11;40.63;;;13.35;;
79019;SDS011;72857;44.740;37.770;2024-03-25T00:08:13;40.10;;;16.05;;
79019;SDS011;72857;44.740;37.770;2024-03-25T00:09:15;51.10;;;14.18;;
79019;SDS011;72857;44.740;37.770;2024-03-25T00:10:16;47.35;;;16.10;;
79019;SDS011;72857;44.740;37.770;2024-03-25T00:11:17;43.83;;;13.70;;
79019;SDS011;72857;44.740;37.770;2024-03-25T00:12:19;38.95;;;15.55;;
79019;SDS011;72857;44.740;37.770;2024-03-25T00:13:20;38.47;;;15.60;;
79019;SDS011;72857;44.740;37.770;2024-03-25T00:14:22;49.80;;;14.50;;
79019;SDS011;72857;44.740;37.770;2024-03-25T00:15:23;42.15;;;14.07;;
79019;SDS011;72857;44.740;37.770;2024-03-25T00:16:25;42.78;;;14.30;;
79019;SDS011;72857;44.740;37.770;2024-03-25T00:17:26;45.95;;;13.77;;
79019;SDS011;72857;44.740;37.770;2024-03-25T00:18:28;41.85;;;14.85;;
79019;SDS011;72857;44.740;37.770;2024-03-25T00:19:29;39.20;;;14.13;;
79019;SDS011;72857;44.740;37.770;2024-03-25T00:20:32;42.22;;;13.75;;
79019;SDS011;72857;44.740;37.770;2024-03-25T00:21:33;46.30;;;14.25;;
79019;SDS011;72857;44.740;37.770;2024-03-25T00:22:35;35.38;;;12.85;;
79019;SDS011;72857;44.740;37.770;2024-03-25T00:23:36;40.45;;;14.32;;
79019;SDS011;72857;44.740;37.770;2024-03-25T00:24:38;38.65;;;13.60;;
79019;SDS011;72857;44.740;37.770;2024-03-25T00:25:39;32.15;;;13.07;;
79019;SDS011;72857;44.740;37.770;2024-03-25T00:26:40;35.72;;;12.35;;
79019;SDS011;72857;44.740;37.770;2024-03-25T00:27:42;39.08;;;12.32;;
79019;SDS011;72857;44.740;37.770;2024-03-25T00:28:43;24.80;;;12.68;;
79019;SDS011;72857;44.740;37.770;2024-03-25T00:29:45;33.50;;;12.65;;
79019;SDS011;72857;44.740;37.770;2024-03-25T00:30:46;40.22;;;12.45;;
79019;SDS011;72857;44.740;37.770;2024-03-25T00:31:47;34.85;;;12.82;;
79019;SDS011;72857;44.740;37.770;2024-03-25T00:32:49;36.17;;;13.75;;
79019;SDS011;72857;44.740;37.770;2024-03-25T00:33:50;31.52;;;11.85;;
79019;SDS011;72857;44.740;37.770;2024-03-25T00:34:51;37.90;;;14.10;;
79019;SDS011;72857;44.740;37.770;2024-03-25T00:35:53;31.30;;;12.27;;
79019;SDS011;72857;44.740;37.770;2024-03-25T00:36:54;33.60;;;13.60;;
79019;SDS011;72857;44.740;37.770;2024-03-25T00:37:56;42.58;;;12.65;;
79019;SDS011;72857;44.740;37.770;2024-03-25T00:38:57;39.22;;;14.35;;
79019;SDS011;72857;44.740;37.770;2024-03-25T00:39:58;35.97;;;13.90;;
79019;SDS011;72857;44.740;37.770;2024-03-25T00:41:00;45.17;;;13.25;;
79019;SDS011;72857;44.740;37.770;2024-03-25T00:42:01;48.85;;;14.23;;
79019;SDS011;72857;44.740;37.770;2024-03-25T00:43:03;45.35;;;15.88;;
79019;SDS011;72857;44.740;37.770;2024-03-25T00:44:04;36.47;;;14.07;;
79019;SDS011;72857;44.740;37.770;2024-03-25T00:45:06;37.67;;;12.80;;
79019;SDS011;72857;44.740;37.770;2024-03-25T00:46:08;38.25;;;13.95;;
79019;SDS011;72857;44.740;37.770;2024-03-25T00:47:09;34.95;;;12.55;;
79019;SDS011;72857;44.740;37.770;2024-03-25T00:48:11;38.42;;;13.65;;
79019;SDS011;72857;44.740;37.770;2024-03-25T00:49:13;28.27;;;12.73;;
79019;SDS011;72857;44.740;37.770;2024-03-25T00:50:14;34.42;;;12.45;;
79019;SDS011;72857;44.740;37.770;2024-03-25T00:51:16;34.45;;;12.20;;
79019;SDS011;72857;44.740;37.770;2024-03-25T00:52:17;36.60;;;15.57;;
79019;SDS011;72857;44.740;37.770;2024-03-25T00:53:18;40.38;;;14.57;;
79019;SDS011;72857;44.740;37.770;2024-03-25T00:54:20;32.95;;;13.40;;
79019;SDS011;72857;44.740;37.770;2024-03-25T00:55:21;37.88;;;13.18;;
79019;SDS011;72857;44.740;37.770;2024-03-25T00:56:22;35.97;;;12.48;;
79019;SDS011;72857;44.740;37.770;2024-03-25T00:57:24;34.03;;;13.75;;
79019;SDS011;72857;44.740;37.770;2024-03-25T00:58:25;42.97;;;13.10;;
79019;SDS011;72857;44.740;37.770;2024-03-25T00:59:27;41.42;;;14.30;;
79019;SDS011;72857;44.740;37.770;2024-03-25T01:00:28;48.17;;;13.73;;
79019;SDS011;72857;44.740;37.770;2024-03-25T01:01:30;63.78;;;13.70;;
79019;SDS011;72857;44.740;37.770;2024-03-25T01:02:32;36.35;;;16.38;;
79019;SDS011;72857;44.740;37.770;2024-03-25T01:03:33;53.40;;;13.57;;
79019;SDS011;72857;44.740;37.770;2024-03-25T01:04:35;42.65;;;13.55;;
79019;SDS011;72857;44.740;37.770;2024-03-25T01:05:36;47.35;;;14.30;;
79019;SDS011;72857;44.740;37.770;2024-03-25T01:06:40;39.35;;;12.57;;
79019;SDS011;72857;44.740;37.770;2024-03-25T01:07:42;48.67;;;15.95;;
79019;SDS011;72857;44.740;37.770;2024-03-25T01:08:44;52.80;;;15.80;;
79019;SDS011;72857;44.740;37.770;2024-03-25T01:09:45;38.30;;;15.30;;
79019;SDS011;72857;44.740;37.770;2024-03-25T01:10:46;44.08;;;14.80;;
79019;SDS011;72857;44.740;37.770;2024-03-25T01:11:48;55.83;;;15.95;;
79019;SDS011;72857;44.740;37.770;2024-03-25T01:12:49;42.88;;;13.38;;
79019;SDS011;72857;44.740;37.770;2024-03-25T01:13:51;55.65;;;16.42;;
79019;SDS011;72857;44.740;37.770;2024-03-25T01:14:53;44.08;;;13.68;;
79019;SDS011;72857;44.740;37.770;2024-03-25T01:15:54;65.57;;;15.63;;
79019;SDS011;72857;44.740;37.770;2024-03-25T01:16:55;45.42;;;13.88;;
79019;SDS011;72857;44.740;37.770;2024-03-25T01:17:57;71.50;;;16.67;;
79019;SDS011;72857;44.740;37.770;2024-03-25T01:18:58;56.70;;;15.00;;
79019;SDS011;72857;44.740;37.770;2024-03-25T01:20:00;51.63;;;13.82;;
79019;SDS011;72857;44.740;37.770;2024-03-25T01:21:01;52.00;;;14.25;;
79019;SDS011;72857;44.740;37.770;2024-03-25T01:22:03;50.38;;;13.73;;
79019;SDS011;72857;44.740;37.770;2024-03-25T01:23:05;40.58;;;12.73;;
79019;SDS011;72857;44.740;37.770;2024-03-25T01:24:07;52.83;;;14.70;;
79019;SDS011;72857;44.740;37.770;2024-03-25T01:25:08;45.45;;;13.05;;
79019;SDS011;72857;44.740;37.770;2024-03-25T01:26:09;46.95;;;13.73;;
79019;SDS011;72857;44.740;37.770;2024-03-25T01:27:11;43.60;;;13.43;;
79019;SDS011;72857;44.740;37.770;2024-03-25T01:28:12;47.58;;;12.93;;
79019;SDS011;72857;44.740;37.770;2024-03-25T01:29:14;42.75;;;13.98;;
79019;SDS011;72857;44.740;37.770;2024-03-25T01:30:15;41.03;;;14.38;;
79019;SDS011;72857;44.740;37.770;2024-03-25T01:31:17;36.28;;;12.90;;
79019;SDS011;72857;44.740;37.770;2024-03-25T01:32:18;44.58;;;13.48;;
79019;SDS011;72857;44.740;37.770;2024-03-25T01:33:19;43.03;;;12.32;;
79019;SDS011;72857;44.740;37.770;2024-03-25T01:34:21;37.10;;;12.95;;
79019;SDS011;72857;44.740;37.770;2024-03-25T01:35:22;41.97;;;14.23;;
79019;SDS011;72857;44.740;37.770;2024-03-25T01:36:23;29.65;;;13.13;;
79019;SDS011;72857;44.740;37.770;2024-03-25T01:37:26;39.08;;;11.90;;
79019;SDS011;72857;44.740;37.770;2024-03-25T01:38:28;29.13;;;12.38;;
79019;SDS011;72857;44.740;37.770;2024-03-25T01:39:29;37.78;;;13.77;;
79019;SDS011;72857;44.740;37.770;2024-03-25T01:40:31;33.55;;;11.15;;
79019;SDS011;72857;44.740;37.770;2024-03-25T01:41:32;32.05;;;12.18;;
79019;SDS011;72857;44.740;37.770;2024-03-25T01:42:34;27.27;;;10.50;;
79019;SDS011;72857;44.740;37.770;2024-03-25T01:43:36;40.45;;;11.30;;
79019;SDS011;72857;44.740;37.770;2024-03-25T01:44:37;30.27;;;12.52;;
79019;SDS011;72857;44.740;37.770;2024-03-25T01:45:39;35.88;;;12.95;;
79019;SDS011;72857;44.740;37.770;2024-03-25T01:46:40;43.97;;;12.25;;
79019;SDS011;72857;44.740;37.770;2024-03-25T01:47:43;35.95;;;11.52;;
79019;SDS011;72857;44.740;37.770;2024-03-25T01:48:46;40.50;;;12.25;;
79019;SDS011;72857;44.740;37.770;2024-03-25T01:49:49;41.58;;;13.88;;
79019;SDS011;72857;44.740;37.770;2024-03-25T01:50:54;33.70;;;12.23;;
79019;SDS011;72857;44.740;37.770;2024-03-25T01:51:57;34.67;;;10.88;;
79019;SDS011;72857;44.740;37.770;2024-03-25T01:52:59;42.67;;;12.27;;
79019;SDS011;72857;44.740;37.770;2024-03-25T01:54:00;40.65;;;13.25;;
79019;SDS011;72857;44.740;37.770;2024-03-25T01:55:03;36.10;;;11.60;;
79019;SDS011;72857;44.740;37.770;2024-03-25T01:56:06;34.80;;;11.75;;
79019;SDS011;72857;44.740;37.770;2024-03-25T01:57:08;32.75;;;12.10;;
79019;SDS011;72857;44.740;37.770;2024-03-25T01:58:10;34.63;;;11.80;;
79019;SDS011;72857;44.740;37.770;2024-03-25T01:59:12;44.85;;;14.88;;
79019;SDS011;72857;44.740;37.770;2024-03-25T02:00:16;27.67;;;11.20;;
79019;SDS011;72857;44.740;37.770;2024-03-25T02:01:21;29.83;;;11.93;;
79019;SDS011;72857;44.740;37.770;2024-03-25T02:02:24;29.42;;;11.60;;
79019;SDS011;72857;44.740;37.770;2024-03-25T02:03:25;35.15;;;12.15;;
79019;SDS011;72857;44.740;37.770;2024-03-25T02:04:26;40.80;;;13.30;;
79019;SDS011;72857;44.740;37.770;2024-03-25T02:05:28;35.75;;;14.07;;
79019;SDS011;72857;44.740;37.770;2024-03-25T02:06:30;42.75;;;13.45;;
79019;SDS011;72857;44.740;37.770;2024-03-25T02:07:31;48.65;;;13.68;;
79019;SDS011;72857;44.740;37.770;2024-03-25T02:08:34;43.20;;;13.57;;
79019;SDS011;72857;44.740;37.770;2024-03-25T02:09:36;47.55;;;12.55;;
79019;SDS011;72857;44.740;37.770;2024-03-25T02:10:39;51.97;;;14.68;;
79019;SDS011;72857;44.740;37.770;2024-03-25T02:11:41;42.90;;;13.48;;
79019;SDS011;72857;44.740;37.770;2024-03-25T02:12:44;39.78;;;11.90;;
79019;SDS011;72857;44.740;37.770;2024-03-25T02:13:46;40.40;;;13.50;;
79019;SDS011;72857;44.740;37.770;2024-03-25T02:14:48;53.00;;;13.73;;
79019;SDS011;72857;44.740;37.770;2024-03-25T02:15:49;59.00;;;13.98;;
79019;SDS011;72857;44.740;37.770;2024-03-25T02:16:52;41.72;;;13.98;;
79019;SDS011;72857;44.740;37.770;2024-03-25T02:17:53;39.42;;;13.75;;
79019;SDS011;72857;44.740;37.770;2024-03-25T02:18:54;35.72;;;12.63;;
79019;SDS011;72857;44.740;37.770;2024-03-25T02:19:56;42.20;;;11.80;;
79019;SDS011;72857;44.740;37.770;2024-03-25T02:20:57;30.42;;;11.05;;
79019;SDS011;72857;44.740;37.770;2024-03-25T02:21:59;45.22;;;12.85;;
79019;SDS011;72857;44.740;37.770;2024-03-25T02:23:01;44.95;;;12.68;;
79019;SDS011;72857;44.740;37.770;2024-03-25T02:24:03;34.90;;;12.00;;
79019;SDS011;72857;44.740;37.770;2024-03-25T02:25:08;33.58;;;12.23;;
79019;SDS011;72857;44.740;37.770;2024-03-25T02:26:11;38.95;;;10.68;;
79019;SDS011;72857;44.740;37.770;2024-03-25T02:27:12;36.25;;;11.73;;
79019;SDS011;72857;44.740;37.770;2024-03-25T02:28:16;40.30;;;11.90;;
79019;SDS011;72857;44.740;37.770;2024-03-25T02:29:18;30.88;;;10.45;;
79019;SDS011;72857;44.740;37.770;2024-03-25T02:30:19;29.83;;;11.18;;
79019;SDS011;72857;44.740;37.770;2024-03-25T02:31:21;27.42;;;10.07;;
79019;SDS011;72857;44.740;37.770;2024-03-25T02:32:22;29.05;;;10.25;;
79019;SDS011;72857;44.740;37.770;2024-03-25T02:33:24;28.38;;;9.60;;
79019;SDS011;72857;44.740;37.770;2024-03-25T02:34:25;23.95;;;9.93;;
79019;SDS011;72857;44.740;37.770;2024-03-25T02:35:27;30.45;;;8.70;;
79019;SDS011;72857;44.740;37.770;2024-03-25T02:36:28;20.45;;;8.10;;
79019;SDS011;72857;44.740;37.770;2024-03-25T02:37:30;23.05;;;9.48;;
79019;SDS011;72857;44.740;37.770;2024-03-25T02:38:31;23.35;;;10.15;;
79019;SDS011;72857;44.740;37.770;2024-03-25T02:39:33;21.48;;;10.23;;
79019;SDS011;72857;44.740;37.770;2024-03-25T02:40:35;23.10;;;10.48;;
79019;SDS011;72857;44.740;37.770;2024-03-25T02:41:37;24.02;;;10.50;;
79019;SDS011;72857;44.740;37.770;2024-03-25T02:42:40;27.35;;;12.30;;
79019;SDS011;72857;44.740;37.770;2024-03-25T02:43:42;28.85;;;10.50;;
79019;SDS011;72857;44.740;37.770;2024-03-25T02:44:44;22.60;;;9.88;;
79019;SDS011;72857;44.740;37.770;2024-03-25T02:45:45;21.05;;;9.77;;
79019;SDS011;72857;44.740;37.770;2024-03-25T02:46:47;28.13;;;10.32;;
79019;SDS011;72857;44.740;37.770;2024-03-25T02:47:49;29.05;;;8.85;;
79019;SDS011;72857;44.740;37.770;2024-03-25T02:48:51;30.10;;;9.90;;
79019;SDS011;72857;44.740;37.770;2024-03-25T02:49:53;25.67;;;10.35;;
79019;SDS011;72857;44.740;37.770;2024-03-25T02:50:54;24.08;;;10.15;;
79019;SDS011;72857;44.740;37.770;2024-03-25T02:51:56;24.88;;;9.77;;
79019;SDS011;72857;44.740;37.770;2024-03-25T02:52:57;31.75;;;11.48;;
79019;SDS011;72857;44.740;37.770;2024-03-25T02:53:59;43.38;;;10.15;;
79019;SDS011;72857;44.740;37.770;2024-03-25T02:55:00;25.30;;;10.98;;
79019;SDS011;72857;44.740;37.770;2024-03-25T02:56:02;26.70;;;9.73;;
79019;SDS011;72857;44.740;37.770;2024-03-25T02:57:03;28.45;;;10.30;;
79019;SDS011;72857;44.740;37.770;2024-03-25T02:58:05;29.98;;;9.50;;
79019;SDS011;72857;44.740;37.770;2024-03-25T02:59:07;49.22;;;11.45;;
79019;SDS011;72857;44.740;37.770;2024-03-25T03:00:08;34.80;;;10.68;;
79019;SDS011;72857;44.740;37.770;2024-03-25T03:01:10;37.25;;;11.70;;
79019;SDS011;72857;44.740;37.770;2024-03-25T03:02:12;30.88;;;11.07;;
79019;SDS011;72857;44.740;37.770;2024-03-25T03:03:15;32.40;;;11.30;;
79019;SDS011;72857;44.740;37.770;2024-03-25T03:04:16;33.28;;;9.50;;
79019;SDS011;72857;44.740;37.770;2024-03-25T03:05:18;35.92;;;10.18;;
79019;SDS011;72857;44.740;37.770;2024-03-25T03:06:20;31.77;;;10.52;;
79019;SDS011;72857;44.740;37.770;2024-03-25T03:07:21;34.40;;;11.25;;
79019;SDS011;72857;44.740;37.770;2024-03-25T03:08:23;36.78;;;10.88;;
79019;SDS011;72857;44.740;37.770;2024-03-25T03:09:24;32.22;;;11.32;;
79019;SDS011;72857;44.740;37.770;2024-03-25T03:10:26;40.80;;;10.23;;
79019;SDS011;72857;44.740;37.770;2024-03-25T03:11:27;40.70;;;11.30;;
79019;SDS011;72857;44.740;37.770;2024-03-25T03:12:28;36.33;;;10.48;;
79019;SDS011;72857;44.740;37.770;2024-03-25T03:13:30;38.95;;;12.90;;
79019;SDS011;72857;44.740;37.770;2024-03-25T03:14:31;30.92;;;10.82;;
79019;SDS011;72857;44.740;37.770;2024-03-25T03:15:32;39.00;;;11.38;;
79019;SDS011;72857;44.740;37.770;2024-03-25T03:16:34;51.55;;;10.68;;
79019;SDS011;72857;44.740;37.770;2024-03-25T03:17:35;42.70;;;10.68;;
79019;SDS011;72857;44.740;37.770;2024-03-25T03:18:37;31.27;;;9.45;;
79019;SDS011;72857;44.740;37.770;2024-03-25T03:19:38;33.67;;;11.57;;
79019;SDS011;72857;44.740;37.770;2024-03-25T03:20:40;37.90;;;8.50;;
79019;SDS011;72857;44.740;37.770;2024-03-25T03:21:41;35.92;;;9.52;;
79019;SDS011;72857;44.740;37.770;2024-03-25T03:22:43;25.23;;;8.80;;
79019;SDS011;72857;44.740;37.770;2024-03-25T03:23:45;25.70;;;8.07;;
79019;SDS011;72857;44.740;37.770;2024-03-25T03:24:46;24.42;;;8.15;;
79019;SDS011;72857;44.740;37.770;2024-03-25T03:25:50;38.45;;;10.43;;
79019;SDS011;72857;44.740;37.770;2024-03-25T03:26:51;35.58;;;10.07;;
79019;SDS011;72857;44.740;37.770;2024-03-25T03:27:52;31.73;;;8.13;;
79019;SDS011;72857;44.740;37.770;2024-03-25T03:28:54;39.63;;;9.57;;
79019;SDS011;72857;44.740;37.770;2024-03-25T03:29:55;31.00;;;8.93;;
79019;SDS011;72857;44.740;37.770;2024-03-25T03:30:57;30.30;;;7.85;;
79019;SDS011;72857;44.740;37.770;2024-03-25T03:31:58;28.83;;;8.38;;
79019;SDS011;72857;44.740;37.770;2024-03-25T03:33:00;38.67;;;9.73;;
79019;SDS011;72857;44.740;37.770;2024-03-25T03:34:02;23.45;;;8.15;;
79019;SDS011;72857;44.740;37.770;2024-03-25T03:35:03;32.25;;;8.50;;
79019;SDS011;72857;44.740;37.770;2024-03-25T03:36:05;27.00;;;8.90;;
79019;SDS011;72857;44.740;37.770;2024-03-25T03:37:07;31.13;;;8.68;;
79019;SDS011;72857;44.740;37.770;2024-03-25T03:38:08;28.65;;;8.57;;
79019;SDS011;72857;44.740;37.770;2024-03-25T03:39:10;30.83;;;10.15;;
79019;SDS011;72857;44.740;37.770;2024-03-25T03:40:11;29.60;;;7.55;;
79019;SDS011;72857;44.740;37.770;2024-03-25T03:41:13;23.45;;;8.50;;
79019;SDS011;72857;44.740;37.770;2024-03-25T03:42:14;30.08;;;8.15;;
79019;SDS011;72857;44.740;37.770;2024-03-25T03:43:16;28.60;;;8.57;;
79019;SDS011;72857;44.740;37.770;2024-03-25T03:44:17;28.05;;;8.45;;
79019;SDS011;72857;44.740;37.770;2024-03-25T03:45:18;38.50;;;10.07;;
79019;SDS011;72857;44.740;37.770;2024-03-25T03:46:20;31.58;;;8.60;;
79019;SDS011;72857;44.740;37.770;2024-03-25T03:47:21;36.72;;;9.15;;
79019;SDS011;72857;44.740;37.770;2024-03-25T03:48:22;30.23;;;8.90;;
79019;SDS011;72857;44.740;37.770;2024-03-25T03:49:24;31.98;;;8.18;;
79019;SDS011;72857;44.740;37.770;2024-03-25T03:50:25;34.35;;;9.13;;
79019;SDS011;72857;44.740;37.770;2024-03-25T03:51:27;28.95;;;9.18;;
79019;SDS011;72857;44.740;37.770;2024-03-25T03:52:28;30.20;;;9.35;;
79019;SDS011;72857;44.740;37.770;2024-03-25T03:53:29;27.38;;;7.85;;
79019;SDS011;72857;44.740;37.770;2024-03-25T03:54:31;32.63;;;8.75;;
79019;SDS011;72857;44.740;37.770;2024-03-25T03:55:33;41.50;;;10.25;;
79019;SDS011;72857;44.740;37.770;2024-03-25T03:56:34;34.83;;;10.00;;
79019;SDS011;72857;44.740;37.770;2024-03-25T03:57:35;38.17;;;9.57;;
79019;SDS011;72857;44.740;37.770;2024-03-25T03:58:37;32.50;;;9.27;;
79019;SDS011;72857;44.740;37.770;2024-03-25T03:59:39;24.05;;;7.38;;
79019;SDS011;72857;44.740;37.770;2024-03-25T04:00:40;26.15;;;6.95;;
79019;SDS011;72857;44.740;37.770;2024-03-25T04:01:41;23.13;;;7.82;;
79019;SDS011;72857;44.740;37.770;2024-03-25T04:02:43;19.98;;;7.50;;
79019;SDS011;72857;44.740;37.770;2024-03-25T04:03:44;22.70;;;6.22;;
79019;SDS011;72857;44.740;37.770;2024-03-25T04:04:45;18.92;;;6.38;;
79019;SDS011;72857;44.740;37.770;2024-03-25T04:05:47;23.08;;;7.10;;
79019;SDS011;72857;44.740;37.770;2024-03-25T04:06:48;30.08;;;9.00;;
79019;SDS011;72857;44.740;37.770;2024-03-25T04:07:50;22.15;;;8.68;;
79019;SDS011;72857;44.740;37.770;2024-03-25T04:08:51;25.27;;;8.95;;
79019;SDS011;72857;44.740;37.770;2024-03-25T04:09:53;38.92;;;9.27;;
79019;SDS011;72857;44.740;37.770;2024-03-25T04:10:55;41.25;;;10.65;;
79019;SDS011;72857;44.740;37.770;2024-03-25T04:11:56;41.50;;;8.60;;
79019;SDS011;72857;44.740;37.770;2024-03-25T04:12:57;25.50;;;9.63;;
79019;SDS011;72857;44.740;37.770;2024-03-25T04:13:58;26.95;;;8.32;;
79019;SDS011;72857;44.740;37.770;2024-03-25T04:15:00;19.58;;;8.52;;
79019;SDS011;72857;44.740;37.770;2024-03-25T04:16:04;31.90;;;8.05;;
79019;SDS011;72857;44.740;37.770;2024-03-25T04:17:06;27.02;;;7.18;;
79019;SDS011;72857;44.740;37.770;2024-03-25T04:18:08;21.38;;;7.82;;
79019;SDS011;72857;44.740;37.770;2024-03-25T04:19:10;22.63;;;8.13;;
79019;SDS011;72857;44.740;37.770;2024-03-25T04:20:11;27.70;;;8.82;;
79019;SDS011;72857;44.740;37.770;2024-03-25T04:21:13;29.15;;;7.20;;
79019;SDS011;72857;44.740;37.770;2024-03-25T04:22:14;25.98;;;8.20;;
79019;SDS011;72857;44.740;37.770;2024-03-25T04:23:16;23.85;;;8.20;;
79019;SDS011;72857;44.740;37.770;2024-03-25T04:24:17;41.97;;;9.68;;
79019;SDS011;72857;44.740;37.770;2024-03-25T04:25:19;28.95;;;9.05;;
79019;SDS011;72857;44.740;37.770;2024-03-25T04:26:20;29.33;;;8.68;;
79019;SDS011;72857;44.740;37.770;2024-03-25T04:27:22;40.25;;;9.68;;
79019;SDS011;72857;44.740;37.770;2024-03-25T04:28:25;30.48;;;8.93;;
79019;SDS011;72857;44.740;37.770;2024-03-25T04:29:28;28.35;;;9.77;;
79019;SDS011;72857;44.740;37.770;2024-03-25T04:30:30;37.38;;;9.38;;
79019;SDS011;72857;44.740;37.770;2024-03-25T04:31:31;155.05;;;59.45;;
79019;SDS011;72857;44.740;37.770;2024-03-25T04:32:32;99.35;;;35.80;;
79019;SDS011;72857;44.740;37.770;2024-03-25T04:33:34;68.65;;;26.48;;
79019;SDS011;72857;44.740;37.770;2024-03-25T04:34:35;65.57;;;25.67;;
79019;SDS011;72857;44.740;37.770;2024-03-25T04:35:37;62.85;;;26.27;;
79019;SDS011;72857;44.740;37.770;2024-03-25T04:36:38;40.70;;;16.10;;
79019;SDS011;72857;44.740;37.770;2024-03-25T04:37:40;29.58;;;10.75;;
79019;SDS011;72857;44.740;37.770;2024-03-25T04:38:42;31.58;;;11.00;;
79019;SDS011;72857;44.740;37.770;2024-03-25T04:39:43;26.38;;;10.40;;
79019;SDS011;72857;44.740;37.770;2024-03-25T04:40:53;25.23;;;7.15;;
79019;SDS011;72857;44.740;37.770;2024-03-25T04:41:55;33.30;;;9.13;;
79019;SDS011;72857;44.740;37.770;2024-03-25T04:42:57;25.63;;;8.38;;
79019;SDS011;72857;44.740;37.770;2024-03-25T04:43:59;22.67;;;9.13;;
79019;SDS011;72857;44.740;37.770;2024-03-25T04:45:00;28.92;;;8.60;;
79019;SDS011;72857;44.740;37.770;2024-03-25T04:46:02;33.28;;;8.77;;
79019;SDS011;72857;44.740;37.770;2024-03-25T04:47:04;30.85;;;9.00;;
79019;SDS011;72857;44.740;37.770;2024-03-25T04:48:05;36.67;;;9.80;;
79019;SDS011;72857;44.740;37.770;2024-03-25T04:49:08;35.28;;;10.98;;
79019;SDS011;72857;44.740;37.770;2024-03-25T04:50:10;36.47;;;9.23;;
79019;SDS011;72857;44.740;37.770;2024-03-25T04:51:11;29.48;;;10.07;;
79019;SDS011;72857;44.740;37.770;2024-03-25T04:52:12;32.45;;;8.60;;
79019;SDS011;72857;44.740;37.770;2024-03-25T04:53:19;42.53;;;9.98;;
79019;SDS011;72857;44.740;37.770;2024-03-25T04:54:20;35.15;;;8.93;;
79019;SDS011;72857;44.740;37.770;2024-03-25T04:55:22;24.13;;;9.85;;
79019;SDS011;72857;44.740;37.770;2024-03-25T04:56:23;23.50;;;9.77;;
79019;SDS011;72857;44.740;37.770;2024-03-25T04:57:24;39.35;;;9.32;;
79019;SDS011;72857;44.740;37.770;2024-03-25T04:58:26;28.92;;;11.05;;
79019;SDS011;72857;44.740;37.770;2024-03-25T04:59:27;24.25;;;9.07;;
79019;SDS011;72857;44.740;37.770;2024-03-25T05:00:29;27.63;;;7.80;;
79019;SDS011;72857;44.740;37.770;2024-03-25T05:01:30;31.80;;;9.55;;
79019;SDS011;72857;44.740;37.770;2024-03-25T05:02:32;17.42;;;7.50;;
79019;SDS011;72857;44.740;37.770;2024-03-25T05:03:33;20.20;;;8.35;;
79019;SDS011;72857;44.740;37.770;2024-03-25T05:04:34;25.90;;;7.68;;
79019;SDS011;72857;44.740;37.770;2024-03-25T05:05:36;36.72;;;10.13;;
79019;SDS011;72857;44.740;37.770;2024-03-25T05:06:37;25.58;;;8.15;;
79019;SDS011;72857;44.740;37.770;2024-03-25T05:07:39;28.73;;;7.93;;
79019;SDS011;72857;44.740;37.770;2024-03-25T05:08:41;23.00;;;7.88;;
79019;SDS011;72857;44.740;37.770;2024-03-25T05:09:42;26.90;;;7.85;;
79019;SDS011;72857;44.740;37.770;2024-03-25T05:10:44;26.95;;;7.88;;
79019;SDS011;72857;44.740;37.770;2024-03-25T05:11:46;22.40;;;6.70;;
79019;SDS011;72857;44.740;37.770;2024-03-25T05:12:47;24.48;;;8.07;;
79019;SDS011;72857;44.740;37.770;2024-03-25T05:13:50;23.35;;;7.90;;
79019;SDS011;72857;44.740;37.770;2024-03-25T05:14:51;21.02;;;7.35;;
79019;SDS011;72857;44.740;37.770;2024-03-25T05:15:53;22.05;;;8.40;;
79019;SDS011;72857;44.740;37.770;2024-03-25T05:16:54;20.55;;;8.23;;
79019;SDS011;72857;44.740;37.770;2024-03-25T05:17:57;24.10;;;7.32;;
79019;SDS011;72857;44.740;37.770;2024-03-25T05:18:58;22.35;;;7.05;;
79019;SDS011;72857;44.740;37.770;2024-03-25T05:20:00;21.05;;;6.65;;
79019;SDS011;72857;44.740;37.770;2024-03-25T05:21:01;20.95;;;6.53;;
79019;SDS011;72857;44.740;37.770;2024-03-25T05:22:02;21.27;;;7.93;;
79019;SDS011;72857;44.740;37.770;2024-03-25T05:23:04;18.25;;;7.68;;
79019;SDS011;72857;44.740;37.770;2024-03-25T05:24:06;16.27;;;6.25;;
79019;SDS011;72857;44.740;37.770;2024-03-25T05:25:07;19.40;;;7.28;;
79019;SDS011;72857;44.740;37.770;2024-03-25T05:26:09;15.63;;;6.22;;
79019;SDS011;72857;44.740;37.770;2024-03-25T05:27:10;13.38;;;6.47;;
79019;SDS011;72857;44.740;37.770;2024-03-25T05:28:11;25.20;;;7.38;;
79019;SDS011;72857;44.740;37.770;2024-03-25T05:29:14;22.10;;;8.10;;
79019;SDS011;72857;44.740;37.770;2024-03-25T05:30:15;21.13;;;7.53;;
79019;SDS011;72857;44.740;37.770;2024-03-25T05:31:17;24.50;;;7.38;;
79019;SDS011;72857;44.740;37.770;2024-03-25T05:32:18;21.73;;;9.35;;
79019;SDS011;72857;44.740;37.770;2024-03-25T05:33:22;20.83;;;6.28;;
79019;SDS011;72857;44.740;37.770;2024-03-25T05:34:24;24.58;;;8.32;;
79019;SDS011;72857;44.740;37.770;2024-03-25T05:35:27;22.40;;;7.90;;
79019;SDS011;72857;44.740;37.770;2024-03-25T05:36:28;23.17;;;9.05;;
79019;SDS011;72857;44.740;37.770;2024-03-25T05:37:30;22.77;;;7.32;;
79019;SDS011;72857;44.740;37.770;2024-03-25T05:39:35;20.42;;;8.10;;
79019;SDS011;72857;44.740;37.770;2024-03-25T05:40:37;24.98;;;7.97;;
79019;SDS011;72857;44.740;37.770;2024-03-25T05:41:38;28.90;;;6.75;;
79019;SDS011;72857;44.740;37.770;2024-03-25T05:42:40;22.85;;;7.13;;
79019;SDS011;72857;44.740;37.770;2024-03-25T05:43:42;20.52;;;7.15;;
79019;SDS011;72857;44.740;37.770;2024-03-25T05:44:45;26.55;;;9.63;;
79019;SDS011;72857;44.740;37.770;2024-03-25T05:45:50;17.08;;;7.05;;
79019;SDS011;72857;44.740;37.770;2024-03-25T05:46:52;19.65;;;6.93;;
79019;SDS011;72857;44.740;37.770;2024-03-25T05:47:53;18.52;;;6.18;;
79019;SDS011;72857;44.740;37.770;2024-03-25T05:48:55;17.92;;;6.18;;
79019;SDS011;72857;44.740;37.770;2024-03-25T05:49:56;22.00;;;7.68;;
79019;SDS011;72857;44.740;37.770;2024-03-25T05:51:01;24.73;;;7.72;;
79019;SDS011;72857;44.740;37.770;2024-03-25T05:52:02;21.27;;;8.98;;
79019;SDS011;72857;44.740;37.770;2024-03-25T05:53:04;19.45;;;8.70;;
79019;SDS011;72857;44.740;37.770;2024-03-25T05:54:05;32.35;;;9.70;;
79019;SDS011;72857;44.740;37.770;2024-03-25T05:55:07;19.13;;;8.20;;
79019;SDS011;72857;44.740;37.770;2024-03-25T05:56:10;17.77;;;7.22;;
79019;SDS011;72857;44.740;37.770;2024-03-25T05:57:12;26.65;;;8.57;;
79019;SDS011;72857;44.740;37.770;2024-03-25T05:58:13;22.92;;;7.57;;